createdAt,value
2023-11-26T00:00:35.849Z,100.00
2023-11-26T00:03:05.218Z,100.00
2023-11-26T00:05:32.352Z,100.00
2023-11-26T00:07:59.147Z,100.00
2023-11-26T00:10:25.925Z,100.00
2023-11-26T00:12:53.813Z,100.00
2023-11-26T00:15:22.024Z,100.00
2023-11-26T00:17:49.278Z,100.00
2023-11-26T00:20:16.433Z,100.00
2023-11-26T00:22:43.544Z,100.00
2023-11-26T00:25:10.269Z,100.00
2023-11-26T00:27:37.005Z,100.00
2023-11-26T00:30:04.738Z,100.00
2023-11-26T00:32:33.168Z,100.00
2023-11-26T00:35:01.057Z,100.00
2023-11-26T00:37:27.909Z,100.00
2023-11-26T00:39:54.669Z,100.00
2023-11-26T00:42:21.336Z,100.00
2023-11-26T00:44:48.078Z,100.00
2023-11-26T00:47:14.948Z,100.00
2023-11-26T00:49:42.159Z,100.00
2023-11-26T00:52:08.976Z,100.00
2023-11-26T00:54:35.640Z,100.00
2023-11-26T00:57:03.035Z,100.00
2023-11-26T00:59:29.762Z,100.00
2023-11-26T01:01:56.742Z,100.00
2023-11-26T01:04:23.825Z,100.00
2023-11-26T01:06:50.704Z,100.00
2023-11-26T01:09:18.066Z,100.00
2023-11-26T01:11:44.856Z,100.00
2023-11-26T01:14:11.632Z,100.00
2023-11-26T01:16:39.044Z,100.00
2023-11-26T01:19:05.838Z,100.00
2023-11-26T01:21:32.520Z,100.00
2023-11-26T01:23:59.316Z,100.00
2023-11-26T01:26:26.370Z,100.00
2023-11-26T01:28:53.399Z,100.00
2023-11-26T01:31:20.447Z,100.00
2023-11-26T01:33:48.494Z,100.00
2023-11-26T01:36:15.275Z,100.00
2023-11-26T01:38:42.507Z,100.00
2023-11-26T01:41:09.620Z,100.00
2023-11-26T01:43:36.418Z,100.00
2023-11-26T01:46:14.265Z,100.00
2023-11-26T01:48:41.938Z,99.79
2023-11-26T01:51:11.690Z,98.95
2023-11-26T01:53:42.619Z,98.86
2023-11-26T01:56:09.879Z,98.71
2023-11-26T01:58:37.321Z,98.74
2023-11-26T02:01:06.448Z,98.50
2023-11-26T02:03:33.303Z,98.48
2023-11-26T02:06:00.233Z,98.51
2023-11-26T02:08:28.109Z,98.10
2023-11-26T02:10:55.030Z,97.49
2023-11-26T02:13:22.197Z,97.95
2023-11-26T02:15:48.980Z,98.12
2023-11-26T02:18:15.921Z,97.26
2023-11-26T02:20:43.627Z,97.06
2023-11-26T02:23:10.635Z,96.73
2023-11-26T02:25:37.419Z,96.26
2023-11-26T02:28:06.909Z,96.45
2023-11-26T02:30:35.310Z,96.37
2023-11-26T02:33:02.380Z,96.65
2023-11-26T02:35:29.273Z,96.49
2023-11-26T02:37:56.722Z,96.72
2023-11-26T02:40:23.565Z,96.44
2023-11-26T02:42:50.299Z,95.86
2023-11-26T02:45:17.024Z,95.81
2023-11-26T02:47:44.734Z,95.10
2023-11-26T02:50:11.743Z,95.31
2023-11-26T02:52:39.740Z,94.89
2023-11-26T02:55:07.717Z,94.78
2023-11-26T02:57:35.139Z,94.17
2023-11-26T03:00:02.046Z,93.95
2023-11-26T03:02:32.509Z,93.11
2023-11-26T03:05:06.802Z,92.53
2023-11-26T03:07:35.682Z,91.81
2023-11-26T03:10:22.013Z,90.77
2023-11-26T03:13:08.118Z,90.18
2023-11-26T03:15:41.513Z,90.71
2023-11-26T03:18:09.459Z,90.89
2023-11-26T03:20:40.927Z,91.20
2023-11-26T03:23:10.512Z,91.31
2023-11-26T03:25:37.616Z,91.84
2023-11-26T03:28:07.075Z,92.19
2023-11-26T03:30:33.911Z,92.74
2023-11-26T03:33:00.670Z,93.20
2023-11-26T03:35:28.056Z,94.06
2023-11-26T03:37:55.624Z,93.75
2023-11-26T03:40:22.775Z,93.69
2023-11-26T03:42:49.503Z,93.59
2023-11-26T03:45:17.079Z,92.90
2023-11-26T03:47:43.935Z,92.01
2023-11-26T03:50:14.347Z,92.10
2023-11-26T03:52:42.101Z,92.64
2023-11-26T03:55:10.439Z,92.53
2023-11-26T03:57:38.608Z,92.75
2023-11-26T04:00:09.272Z,93.45
2023-11-26T04:02:42.074Z,93.31
2023-11-26T04:05:09.365Z,93.19
2023-11-26T04:07:36.084Z,92.61
2023-11-26T04:10:05.905Z,91.52
2023-11-26T04:12:32.665Z,90.99
2023-11-26T04:15:05.842Z,90.26
2023-11-26T04:17:33.344Z,89.31
2023-11-26T04:20:04.955Z,88.66
2023-11-26T04:22:31.675Z,88.62
2023-11-26T04:24:58.391Z,87.61
2023-11-26T04:27:27.049Z,87.86
2023-11-26T04:29:53.749Z,87.49
2023-11-26T04:32:20.570Z,86.94
2023-11-26T04:34:47.322Z,87.73
2023-11-26T04:37:14.021Z,87.75
2023-11-26T04:39:41.074Z,87.70
2023-11-26T04:42:08.485Z,88.24
2023-11-26T04:44:35.311Z,88.65
2023-11-26T04:47:02.701Z,89.00
2023-11-26T04:49:29.509Z,89.75
2023-11-26T04:51:56.191Z,89.72
2023-11-26T04:54:22.910Z,90.47
2023-11-26T04:56:52.404Z,90.87
2023-11-26T04:59:19.481Z,90.16
2023-11-26T05:01:49.992Z,88.95
2023-11-26T05:04:17.075Z,89.00
2023-11-26T05:06:44.098Z,88.66
2023-11-26T05:09:17.107Z,88.51
2023-11-26T05:11:44.846Z,88.59
2023-11-26T05:14:11.811Z,88.35
2023-11-26T05:16:39.402Z,87.75
2023-11-26T05:19:06.488Z,87.12
2023-11-26T05:21:33.204Z,87.20
2023-11-26T05:24:00.040Z,86.54
2023-11-26T05:26:27.916Z,86.19
2023-11-26T05:28:55.002Z,85.59
2023-11-26T05:31:21.983Z,85.88
2023-11-26T05:33:48.842Z,85.64
2023-11-26T05:36:15.917Z,85.39
2023-11-26T05:38:42.745Z,85.82
2023-11-26T05:41:09.560Z,85.96
2023-11-26T05:43:36.413Z,85.97
2023-11-26T05:46:06.749Z,85.71
2023-11-26T05:48:33.863Z,85.16
2023-11-26T05:51:03.021Z,84.90
2023-11-26T05:53:30.563Z,85.11
2023-11-26T05:55:57.258Z,84.97
2023-11-26T05:58:24.054Z,85.27
2023-11-26T06:00:50.927Z,85.85
2023-11-26T06:03:17.847Z,85.94
2023-11-26T06:05:44.658Z,85.91
2023-11-26T06:08:11.356Z,85.05
2023-11-26T06:10:38.323Z,83.50
2023-11-26T06:13:05.023Z,83.52
2023-11-26T06:15:31.885Z,81.57
2023-11-26T06:17:58.589Z,81.66
2023-11-26T06:20:25.279Z,82.15
2023-11-26T06:22:51.972Z,80.07
2023-11-26T06:25:19.032Z,79.26
2023-11-26T06:27:45.778Z,79.64
2023-11-26T06:30:12.690Z,79.84
2023-11-26T06:32:39.472Z,79.52
2023-11-26T06:35:07.368Z,79.60
2023-11-26T06:37:34.175Z,79.91
2023-11-26T06:40:00.915Z,80.36
2023-11-26T06:42:27.692Z,81.23
2023-11-26T06:44:54.545Z,82.68
2023-11-26T06:47:21.498Z,83.31
2023-11-26T06:49:48.169Z,82.12
2023-11-26T06:52:14.910Z,80.86
2023-11-26T06:54:41.747Z,80.14
2023-11-26T06:57:08.458Z,79.70
2023-11-26T06:59:36.544Z,79.30
2023-11-26T07:02:05.276Z,79.01
2023-11-26T07:04:32.054Z,79.48
2023-11-26T07:06:58.876Z,79.14
2023-11-26T07:09:25.947Z,78.27
2023-11-26T07:11:52.658Z,76.34
2023-11-26T07:14:19.321Z,74.35
2023-11-26T07:16:46.107Z,73.73
2023-11-26T07:19:12.845Z,72.53
2023-11-26T07:21:42.892Z,71.67
2023-11-26T07:24:09.910Z,70.90
2023-11-26T07:26:36.768Z,70.47
2023-11-26T07:29:04.170Z,69.55
2023-11-26T07:31:31.110Z,68.79
2023-11-26T07:33:58.301Z,68.93
2023-11-26T07:36:26.089Z,69.99
2023-11-26T07:39:00.036Z,69.40
2023-11-26T07:41:27.707Z,69.05
2023-11-26T07:43:57.215Z,69.45
2023-11-26T07:46:24.496Z,69.83
2023-11-26T07:48:51.615Z,69.11
2023-11-26T07:51:19.109Z,69.05
2023-11-26T07:53:46.521Z,69.14
2023-11-26T07:56:13.385Z,68.66
2023-11-26T07:58:40.078Z,67.86
2023-11-26T08:01:08.516Z,67.62
2023-11-26T08:03:36.763Z,66.99
2023-11-26T08:06:07.457Z,66.60
2023-11-26T08:08:38.101Z,65.72
2023-11-26T08:11:06.547Z,64.90
2023-11-26T08:13:36.399Z,63.93
2023-11-26T08:16:08.644Z,64.15
2023-11-26T08:18:37.186Z,64.28
2023-11-26T08:21:07.479Z,64.43
2023-11-26T08:23:41.398Z,64.28
2023-11-26T08:26:13.864Z,64.43
2023-11-26T08:28:43.233Z,62.88
2023-11-26T08:31:11.927Z,63.04
2023-11-26T08:33:44.118Z,61.95
2023-11-26T08:36:12.262Z,62.69
2023-11-26T08:38:43.108Z,62.18
2023-11-26T08:41:14.957Z,61.05
2023-11-26T08:43:44.722Z,60.87
2023-11-26T08:46:15.903Z,60.98
2023-11-26T08:48:45.242Z,61.42
2023-11-26T08:51:12.545Z,60.33
2023-11-26T08:53:39.376Z,60.82
2023-11-26T08:56:06.689Z,60.73
2023-11-26T08:58:33.408Z,61.58
2023-11-26T09:01:00.235Z,60.87
2023-11-26T09:03:27.204Z,61.14
2023-11-26T09:05:54.331Z,60.64
2023-11-26T09:08:21.176Z,60.31
2023-11-26T09:10:49.840Z,59.69
2023-11-26T09:13:16.647Z,59.62
2023-11-26T09:15:43.891Z,59.99
2023-11-26T09:18:10.877Z,59.46
2023-11-26T09:20:40.657Z,59.62
2023-11-26T09:23:08.812Z,59.25
2023-11-26T09:25:35.727Z,59.39
2023-11-26T09:28:02.538Z,60.04
2023-11-26T09:30:29.383Z,60.65
2023-11-26T09:32:56.323Z,60.45
2023-11-26T09:35:23.395Z,60.68
2023-11-26T09:37:50.253Z,60.96
2023-11-26T09:40:17.125Z,61.12
2023-11-26T09:42:51.373Z,61.36
2023-11-26T09:45:20.044Z,60.94
2023-11-26T09:47:47.478Z,62.13
2023-11-26T09:50:15.025Z,61.95
2023-11-26T09:52:42.300Z,61.10
2023-11-26T09:55:10.203Z,60.87
2023-11-26T09:57:43.311Z,60.72
2023-11-26T10:00:13.672Z,60.83
2023-11-26T10:02:43.074Z,60.05
2023-11-26T10:05:26.270Z,60.52
2023-11-26T10:07:54.074Z,60.41
2023-11-26T10:10:21.901Z,60.36
2023-11-26T10:12:59.232Z,60.48
2023-11-26T10:15:28.641Z,61.31
2023-11-26T10:18:06.490Z,61.99
2023-11-26T10:20:35.408Z,61.97
2023-11-26T10:23:03.551Z,61.89
2023-11-26T10:25:30.647Z,62.45
2023-11-26T10:28:00.858Z,63.22
2023-11-26T10:30:33.244Z,63.56
2023-11-26T10:33:06.805Z,63.85
2023-11-26T10:35:56.082Z,64.53
2023-11-26T10:38:26.925Z,64.96
2023-11-26T10:40:57.172Z,65.39
2023-11-26T10:43:24.499Z,65.50
2023-11-26T10:45:52.006Z,65.80
2023-11-26T10:48:21.856Z,65.99
2023-11-26T10:50:54.352Z,66.36
2023-11-26T10:54:01.426Z,66.20
2023-11-26T10:56:41.491Z,66.42
2023-11-26T10:59:09.695Z,66.38
2023-11-26T11:01:40.094Z,67.03
2023-11-26T11:04:14.581Z,67.38
2023-11-26T11:06:45.285Z,67.82
2023-11-26T11:09:23.603Z,68.21
2023-11-26T11:12:08.476Z,68.32
2023-11-26T11:14:35.448Z,68.55
2023-11-26T11:17:02.184Z,69.41
2023-11-26T11:19:51.520Z,70.52
2023-11-26T11:22:18.467Z,69.83
2023-11-26T11:24:45.280Z,70.13
2023-11-26T11:27:12.482Z,71.06
2023-11-26T11:29:39.881Z,71.30
2023-11-26T11:32:06.671Z,72.20
2023-11-26T11:34:33.684Z,72.38
2023-11-26T11:37:02.493Z,71.96
2023-11-26T11:39:50.972Z,71.62
2023-11-26T11:42:23.270Z,71.92
2023-11-26T11:44:50.771Z,72.64
2023-11-26T11:47:43.970Z,73.99
2023-11-26T11:50:11.981Z,74.66
2023-11-26T11:52:39.647Z,75.10
2023-11-26T11:55:18.615Z,75.87
2023-11-26T11:57:48.178Z,75.92
2023-11-26T12:00:22.206Z,75.68
2023-11-26T12:02:50.765Z,75.33
2023-11-26T12:05:25.605Z,74.45
2023-11-26T12:07:57.718Z,73.48
2023-11-26T12:10:29.223Z,72.90
2023-11-26T12:13:02.395Z,72.06
2023-11-26T12:15:30.472Z,72.31
2023-11-26T12:17:58.528Z,71.51
2023-11-26T12:20:25.434Z,70.91
2023-11-26T12:22:52.392Z,70.50
2023-11-26T12:25:25.420Z,70.74
2023-11-26T12:28:06.544Z,70.58
2023-11-26T12:30:40.746Z,70.53
2023-11-26T12:33:08.843Z,72.22
2023-11-26T12:35:38.378Z,73.02
2023-11-26T12:38:07.982Z,73.03
2023-11-26T12:40:36.863Z,73.49
2023-11-26T12:43:04.072Z,73.57
2023-11-26T12:45:30.752Z,73.35
2023-11-26T12:47:57.849Z,72.96
2023-11-26T12:50:25.747Z,72.96
2023-11-26T12:52:53.212Z,72.26
2023-11-26T12:55:20.492Z,72.34
2023-11-26T12:57:47.849Z,72.14
2023-11-26T13:00:16.006Z,71.77
2023-11-26T13:02:47.347Z,71.20
2023-11-26T13:05:30.777Z,70.11
2023-11-26T13:07:58.792Z,69.00
2023-11-26T13:10:46.612Z,68.08
2023-11-26T13:13:20.845Z,68.41
2023-11-26T13:15:47.801Z,68.44
2023-11-26T13:18:18.478Z,68.74
2023-11-26T13:20:48.802Z,69.67
2023-11-26T13:23:16.520Z,70.06
2023-11-26T13:25:43.440Z,70.52
2023-11-26T13:28:10.474Z,70.10
2023-11-26T13:30:41.640Z,70.05
2023-11-26T13:33:09.383Z,70.23
2023-11-26T13:35:39.914Z,70.42
2023-11-26T13:38:10.195Z,71.26
2023-11-26T13:40:40.781Z,70.37
2023-11-26T13:43:09.274Z,68.32
2023-11-26T13:45:36.997Z,68.19
2023-11-26T13:48:10.790Z,68.19
2023-11-26T13:50:39.192Z,67.13
2023-11-26T13:53:07.699Z,67.02
2023-11-26T13:55:35.274Z,66.67
2023-11-26T13:58:03.727Z,66.53
2023-11-26T14:00:33.022Z,65.25
2023-11-26T14:03:01.032Z,65.12
2023-11-26T14:05:28.408Z,64.25
2023-11-26T14:07:55.541Z,62.90
2023-11-26T14:10:23.894Z,62.29
2023-11-26T14:13:02.722Z,62.98
2023-11-26T14:15:30.521Z,62.08
2023-11-26T14:17:57.596Z,61.90
2023-11-26T14:20:24.632Z,61.74
2023-11-26T14:22:54.851Z,62.26
2023-11-26T14:25:22.131Z,61.86
2023-11-26T14:27:50.854Z,61.55
2023-11-26T14:30:19.401Z,62.07
2023-11-26T14:32:50.824Z,61.56
2023-11-26T14:35:18.077Z,60.83
2023-11-26T14:37:44.952Z,61.00
2023-11-26T14:40:13.877Z,60.72
2023-11-26T14:45:10.698Z,60.69
2023-11-26T14:47:38.016Z,60.83
2023-11-26T14:50:05.836Z,60.96
2023-11-26T14:52:34.879Z,61.30
2023-11-26T14:55:02.770Z,60.31
2023-11-26T14:57:29.816Z,61.09
2023-11-26T14:59:57.538Z,61.92
2023-11-26T15:02:24.546Z,61.66
2023-11-26T15:04:51.418Z,61.53
2023-11-26T15:07:20.224Z,61.38
2023-11-26T15:09:47.060Z,60.97
2023-11-26T15:12:13.970Z,61.09
2023-11-26T15:14:41.535Z,61.45
2023-11-26T15:17:08.290Z,61.28
2023-11-26T15:19:37.454Z,61.12
2023-11-26T15:22:07.630Z,61.79
2023-11-26T15:24:36.594Z,61.61
2023-11-26T15:27:03.353Z,62.26
2023-11-26T15:29:30.076Z,62.63
2023-11-26T15:31:56.923Z,62.40
2023-11-26T15:34:23.717Z,62.40
2023-11-26T15:36:50.696Z,62.48
2023-11-26T15:39:23.220Z,62.66
2023-11-26T15:41:52.286Z,62.66
2023-11-26T15:44:20.044Z,63.30
2023-11-26T15:49:14.548Z,63.87
2023-11-26T15:51:42.466Z,63.48
2023-11-26T15:54:09.366Z,63.37
2023-11-26T15:56:36.604Z,63.42
2023-11-26T15:59:05.087Z,63.66
2023-11-26T16:01:32.773Z,63.27
2023-11-26T16:03:59.777Z,63.91
2023-11-26T16:06:27.619Z,64.13
2023-11-26T16:08:54.377Z,64.19
2023-11-26T16:11:21.495Z,64.30
2023-11-26T16:13:48.362Z,64.57
2023-11-26T16:16:15.136Z,64.99
2023-11-26T16:18:41.940Z,65.12
2023-11-26T16:21:13.115Z,64.86
2023-11-26T16:23:39.937Z,64.48
2023-11-26T16:26:06.805Z,64.64
2023-11-26T16:28:35.306Z,64.65
2023-11-26T16:31:07.058Z,64.69
2023-11-26T16:33:49.320Z,64.70
2023-11-26T16:36:18.186Z,65.21
2023-11-26T16:38:45.121Z,64.99
2023-11-26T16:41:14.986Z,65.50
2023-11-26T16:43:48.183Z,65.25
2023-11-26T16:46:16.248Z,65.37
2023-11-26T16:48:44.785Z,65.54
2023-11-26T16:51:11.655Z,66.05
2023-11-26T16:53:38.710Z,66.43
2023-11-26T16:56:08.477Z,66.60
2023-11-26T16:58:35.472Z,66.89
2023-11-26T17:01:04.224Z,66.52
2023-11-26T17:03:32.117Z,67.25
2023-11-26T17:05:59.685Z,67.17
2023-11-26T17:08:28.906Z,66.89
2023-11-26T17:10:57.532Z,68.68
2023-11-26T17:13:25.530Z,67.30
2023-11-26T17:15:52.978Z,65.84
2023-11-26T17:18:19.948Z,66.24
2023-11-26T17:20:47.654Z,66.41
2023-11-26T17:23:18.830Z,67.09
2023-11-26T17:25:51.984Z,67.85
2023-11-26T17:28:20.259Z,67.44
2023-11-26T17:30:50.749Z,68.82
2023-11-26T17:33:18.996Z,69.20
2023-11-26T17:35:46.659Z,69.26
2023-11-26T17:38:13.424Z,69.42
2023-11-26T17:40:41.692Z,69.95
2023-11-26T17:43:08.965Z,70.56
2023-11-26T17:45:36.069Z,70.73
2023-11-26T17:48:04.728Z,71.11
2023-11-26T17:50:31.617Z,70.74
2023-11-26T17:53:07.216Z,71.41
2023-11-26T17:55:39.401Z,71.14
2023-11-26T17:58:06.332Z,71.03
2023-11-26T18:00:34.347Z,71.25
2023-11-26T18:03:01.561Z,72.15
2023-11-26T18:05:28.253Z,71.54
2023-11-26T18:07:56.308Z,71.90
2023-11-26T18:10:24.232Z,71.65
2023-11-26T18:12:51.155Z,71.09
2023-11-26T18:15:19.003Z,71.48
2023-11-26T18:17:46.306Z,71.51
2023-11-26T18:20:16.084Z,71.31
2023-11-26T18:22:43.052Z,70.58
2023-11-26T18:25:10.424Z,71.18
2023-11-26T18:27:37.311Z,71.17
2023-11-26T18:30:07.021Z,71.59
2023-11-26T18:32:34.131Z,71.50
2023-11-26T18:35:01.081Z,71.44
2023-11-26T18:37:29.375Z,71.56
2023-11-26T18:39:56.746Z,72.42
2023-11-26T18:42:23.660Z,73.30
2023-11-26T18:44:50.597Z,73.03
2023-11-26T18:47:17.557Z,73.23
2023-11-26T18:49:44.345Z,74.15
2023-11-26T18:52:15.618Z,74.47
2023-11-26T18:54:44.472Z,74.20
2023-11-26T18:57:11.653Z,74.36
2023-11-26T18:59:39.783Z,74.94
2023-11-26T19:02:07.789Z,75.05
2023-11-26T19:04:34.699Z,74.52
2023-11-26T19:07:01.511Z,73.67
2023-11-26T19:09:28.246Z,73.17
2023-11-26T19:11:54.925Z,73.24
2023-11-26T19:14:22.417Z,72.77
2023-11-26T19:16:49.310Z,73.01
2023-11-26T19:19:17.002Z,72.62
2023-11-26T19:21:43.951Z,72.96
2023-11-26T19:24:10.978Z,72.49
2023-11-26T19:26:37.826Z,72.01
2023-11-26T19:29:04.647Z,72.43
2023-11-26T19:31:31.397Z,72.76
2023-11-26T19:33:58.179Z,72.54
2023-11-26T19:36:28.539Z,72.99
2023-11-26T19:38:55.407Z,73.01
2023-11-26T19:41:22.490Z,73.14
2023-11-26T19:43:49.841Z,72.91
2023-11-26T19:46:17.427Z,72.67
2023-11-26T19:48:47.710Z,73.22
2023-11-26T19:51:19.805Z,72.93
2023-11-26T19:53:46.933Z,72.49
2023-11-26T19:56:15.551Z,72.68
2023-11-26T19:58:43.234Z,72.61
2023-11-26T20:01:14.083Z,72.30
2023-11-26T20:03:42.048Z,72.35
2023-11-26T20:06:09.770Z,71.97
2023-11-26T20:08:36.702Z,72.13
2023-11-26T20:11:04.017Z,71.71
2023-11-26T20:13:32.086Z,71.64
2023-11-26T20:15:58.951Z,72.16
2023-11-26T20:18:25.835Z,71.71
2023-11-26T20:20:52.547Z,72.22
2023-11-26T20:23:19.360Z,72.20
2023-11-26T20:25:46.098Z,72.17
2023-11-26T20:28:13.160Z,72.67
2023-11-26T20:30:46.886Z,72.97
2023-11-26T20:33:16.403Z,73.24
2023-11-26T20:35:43.457Z,73.28
2023-11-26T20:38:10.202Z,73.66
2023-11-26T20:40:37.005Z,74.39
2023-11-26T20:43:04.328Z,75.02
2023-11-26T20:45:31.113Z,75.39
2023-11-26T20:47:57.883Z,75.63
2023-11-26T20:50:24.760Z,75.68
2023-11-26T20:52:51.494Z,76.18
2023-11-26T20:55:18.366Z,76.81
2023-11-26T20:57:45.746Z,76.58
2023-11-26T21:00:14.330Z,77.08
2023-11-26T21:02:44.150Z,77.00
2023-11-26T21:05:11.613Z,77.99
2023-11-26T21:07:38.793Z,77.69
2023-11-26T21:10:07.436Z,77.56
2023-11-26T21:12:35.547Z,78.22
2023-11-26T21:15:02.582Z,77.72
2023-11-26T21:17:29.673Z,77.25
2023-11-26T21:19:58.144Z,76.84
2023-11-26T21:22:24.914Z,76.86
2023-11-26T21:24:54.483Z,76.71
2023-11-26T21:27:21.261Z,76.61
2023-11-26T21:29:47.931Z,76.58
2023-11-26T21:32:17.473Z,76.11
2023-11-26T21:34:45.787Z,76.04
2023-11-26T21:37:14.341Z,76.47
2023-11-26T21:39:44.558Z,76.34
2023-11-26T21:42:11.350Z,76.55
2023-11-26T21:44:38.182Z,76.87
2023-11-26T21:47:05.089Z,76.67
2023-11-26T21:49:31.963Z,77.18
2023-11-26T21:51:58.779Z,77.13
2023-11-26T21:54:25.539Z,76.90
2023-11-26T21:56:52.241Z,77.06
2023-11-26T21:59:18.941Z,77.33
2023-11-26T22:01:45.862Z,77.05
2023-11-26T22:04:13.061Z,77.21
2023-11-26T22:06:39.803Z,77.64
2023-11-26T22:09:07.297Z,77.46
2023-11-26T22:11:35.250Z,77.83
2023-11-26T22:14:01.952Z,77.53
2023-11-26T22:16:28.822Z,77.58
2023-11-26T22:18:55.714Z,77.81
2023-11-26T22:21:22.855Z,77.93
2023-11-26T22:23:50.562Z,77.66
2023-11-26T22:26:17.654Z,77.69
2023-11-26T22:28:44.438Z,77.85
2023-11-26T22:31:16.758Z,77.79
2023-11-26T22:33:44.822Z,78.31
2023-11-26T22:36:12.118Z,78.99
2023-11-26T22:38:39.230Z,79.27
2023-11-26T22:41:06.182Z,80.70
2023-11-26T22:43:32.943Z,81.49
2023-11-26T22:45:59.818Z,81.84
2023-11-26T22:48:26.550Z,82.11
2023-11-26T22:50:53.651Z,82.15
2023-11-26T22:53:20.885Z,82.71
2023-11-26T22:55:47.750Z,82.83
2023-11-26T22:58:15.226Z,83.03
2023-11-26T23:00:42.352Z,83.17
2023-11-26T23:03:09.691Z,83.65
2023-11-26T23:05:36.588Z,83.64
2023-11-26T23:08:03.358Z,84.17
2023-11-26T23:10:30.113Z,84.45
2023-11-26T23:12:56.934Z,84.69
2023-11-26T23:15:24.091Z,84.52
2023-11-26T23:17:51.000Z,84.99
2023-11-26T23:20:19.290Z,85.34
2023-11-26T23:22:46.018Z,85.60
2023-11-26T23:25:13.564Z,85.72
2023-11-26T23:27:40.377Z,85.96
2023-11-26T23:30:07.800Z,85.97
2023-11-26T23:32:34.804Z,85.79
2023-11-26T23:35:01.871Z,86.60
2023-11-26T23:37:28.710Z,86.82
2023-11-26T23:39:55.676Z,86.52
2023-11-26T23:42:22.572Z,86.76
2023-11-26T23:44:49.269Z,86.48
2023-11-26T23:47:15.967Z,86.89
2023-11-26T23:49:43.261Z,87.27
2023-11-26T23:52:10.332Z,86.99
2023-11-26T23:54:37.280Z,87.47
2023-11-26T23:57:05.154Z,87.32
2023-11-26T23:59:32.118Z,87.61
